Terminal Aerodrome Forecast
Issued by NWS Grand Rapids, MI

Home | Current Version | Previous Version | Text Only | Print | Product List | Glossary On
Versions: 1 2 3 4 5 6 7 8 9 10 11 12 13 14 15 16 17
357
FTUS43 KGRR 281721
TAFGRR
TAF
KGRR 281721Z 2818/0118 19013KT 5SM BR VCSH OVC009
     FM281900 17015KT P6SM VCSH OVC003
     FM010100 17009KT 2SM -SHRA BR OVC007 WS020/23035KT
     FM010400 19010KT 1 1/2SM SHRA BR VCTS OVC003CB WS020/23040KT
     FM010800 23011KT 4SM BR OVC005
     FM011700 28013G21KT 4SM BR OVC007=

USA.gov is the U.S. government's official web portal to all federal, state and local government web resources and services.